Time;durP1;ratioP1;P1;durP2;ratioP2;P2;SDS_P1;SDS_P2;PMS_P1;PMS_P2;Temp;Humidity;BMP_temperature;BMP_pressure;BME280_temperature;BME280_humidity;BME280_pressure;Samples;Min_cycle;Max_cycle;Signal;HPM_P1;HPM_P2
2022/06/04 00:02:00;;;;;;;4.93;2.80;;;16.50;67.50;;;;;;4972383;28;20089;-81
2022/06/04 00:04:25;;;;;;;5.78;2.83;;;16.40;67.70;;;;;;4954133;28;20084;-82
2022/06/04 00:06:51;;;;;;;3.92;2.50;;;16.40;67.40;;;;;;4973226;28;20049;-82
2022/06/04 00:09:20;;;;;;;5.03;2.60;;;16.40;67.30;;;;;;4960237;28;20117;-79
2022/06/04 00:17:14;;;;;;;7.03;3.22;;;16.20;68.10;;;;;;4975548;28;20052;-79
2022/06/04 00:19:40;;;;;;;4.28;2.78;;;16.10;67.50;;;;;;4975698;28;20066;-82
2022/06/04 00:22:06;;;;;;;5.43;3.00;;;16.00;68.50;;;;;;4990633;28;20434;-81
2022/06/04 00:24:31;;;;;;;5.80;3.60;;;16.00;68.70;;;;;;4971534;28;20034;-82
2022/06/04 00:26:57;;;;;;;4.55;3.13;;;15.90;69.30;;;;;;4961177;28;20034;-81
2022/06/04 00:29:22;;;;;;;4.32;3.13;;;15.90;68.90;;;;;;4960377;28;20034;-82
2022/06/04 00:31:48;;;;;;;7.32;3.30;;;15.80;68.60;;;;;;4979695;28;20570;-82
2022/06/04 00:34:14;;;;;;;7.38;3.40;;;15.70;70.30;;;;;;4965069;28;20030;-79
2022/06/04 00:36:39;;;;;;;4.53;3.30;;;15.70;69.60;;;;;;4975046;28;20093;-81
2022/06/04 00:39:05;;;;;;;4.38;2.70;;;15.70;70.70;;;;;;4959790;28;20034;-79
2022/06/04 00:41:38;;;;;;;5.78;2.88;;;15.70;70.20;;;;;;4961051;28;20494;-80
2022/06/04 00:44:09;;;;;;;4.78;3.20;;;15.60;70.50;;;;;;4977968;28;20502;-79
2022/06/04 00:46:41;;;;;;;3.30;3.00;;;15.70;70.70;;;;;;4980614;28;20069;-80
2022/06/04 00:49:14;;;;;;;7.32;3.33;;;15.50;69.90;;;;;;4983317;28;20026;-79
2022/06/04 00:51:41;;;;;;;4.47;3.40;;;15.60;70.10;;;;;;4971212;28;20046;-79
2022/06/04 00:54:06;;;;;;;6.60;4.07;;;15.40;69.70;;;;;;4977330;28;20061;-79
2022/06/04 00:56:50;;;;;;;10.10;3.45;;;15.50;70.20;;;;;;4976517;28;20056;-79
2022/06/04 00:59:21;;;;;;;3.95;3.13;;;15.40;70.30;;;;;;4997969;28;20058;-79
2022/06/04 01:01:57;;;;;;;4.00;3.03;;;15.50;72.20;;;;;;4994522;28;20084;-79
2022/06/04 01:04:47;;;;;;;7.85;3.67;;;15.40;70.80;;;;;;4994689;28;20045;-80
2022/06/04 01:07:42;;;;;;;9.52;3.20;;;15.30;71.20;;;;;;5002301;28;22694;-79
2022/06/04 01:10:19;;;;;;;4.93;2.83;;;15.30;70.70;;;;;;4966427;28;20367;-80
2022/06/04 01:13:07;;;;;;;5.65;3.10;;;15.30;69.80;;;;;;4995480;28;20366;-80
2022/06/04 01:15:47;;;;;;;8.50;3.33;;;15.20;71.80;;;;;;4990249;28;20061;-79
2022/06/04 01:18:28;;;;;;;5.53;3.33;;;15.10;72.80;;;;;;4969907;28;20153;-79
2022/06/04 01:21:10;;;;;;;4.88;3.22;;;15.10;72.70;;;;;;4990754;28;20045;-79
2022/06/04 01:23:53;;;;;;;4.82;3.47;;;15.10;72.70;;;;;;4977008;28;20233;-79
2022/06/04 01:26:26;;;;;;;3.63;3.33;;;15.00;72.70;;;;;;4974192;28;20118;-79
2022/06/04 01:28:56;;;;;;;6.63;3.70;;;14.90;72.30;;;;;;4984194;28;20474;-79
2022/06/04 01:31:30;;;;;;;6.95;3.75;;;14.90;72.10;;;;;;4977675;28;20034;-80
2022/06/04 01:33:59;;;;;;;8.20;3.60;;;14.90;73.30;;;;;;4976252;28;20038;-80
2022/06/04 01:36:29;;;;;;;4.70;3.45;;;14.90;72.50;;;;;;4949945;28;20034;-80
2022/06/04 01:38:56;;;;;;;6.45;3.40;;;14.80;72.20;;;;;;4975828;28;20041;-80
2022/06/04 01:41:26;;;;;;;5.00;3.70;;;14.70;73.20;;;;;;4992335;28;20062;-79
2022/06/04 01:43:54;;;;;;;7.30;3.90;;;14.70;72.30;;;;;;4978769;28;20033;-80
2022/06/04 01:46:25;;;;;;;7.95;4.40;;;14.70;72.60;;;;;;4978372;28;20091;-80
2022/06/04 01:48:53;;;;;;;6.55;4.82;;;14.60;74.00;;;;;;4957454;28;20027;-80
2022/06/04 01:51:21;;;;;;;6.57;4.57;;;14.60;75.50;;;;;;4976111;28;20080;-80
2022/06/04 01:53:47;;;;;;;5.57;3.67;;;14.50;73.60;;;;;;4973716;28;20033;-80
2022/06/04 01:56:22;;;;;;;5.50;4.70;;;14.40;73.50;;;;;;4975295;28;20057;-80
2022/06/04 01:58:51;;;;;;;5.90;5.22;;;14.30;75.90;;;;;;4958045;28;20030;-79
2022/06/04 02:01:24;;;;;;;5.28;4.28;;;14.40;77.00;;;;;;4955155;28;20515;-80
2022/06/04 02:04:05;;;;;;;5.50;4.22;;;14.50;75.70;;;;;;4977117;28;20030;-80
2022/06/04 02:06:35;;;;;;;5.85;4.30;;;14.50;75.30;;;;;;4968047;28;20045;-80
2022/06/04 02:09:04;;;;;;;8.55;4.40;;;14.40;77.60;;;;;;4961209;28;20042;-79
2022/06/04 02:11:29;;;;;;;5.20;3.72;;;14.30;75.10;;;;;;4963210;28;20022;-79
2022/06/04 02:13:58;;;;;;;7.15;4.30;;;14.30;76.90;;;;;;4957353;28;20022;-80
2022/06/04 02:16:32;;;;;;;8.30;4.45;;;14.40;77.40;;;;;;4974912;28;20053;-79
2022/06/04 02:18:58;;;;;;;7.40;4.45;;;14.40;76.70;;;;;;4975209;28;20029;-80
2022/06/04 02:21:24;;;;;;;6.13;4.70;;;14.30;77.20;;;;;;4980463;28;20030;-80
2022/06/04 02:23:50;;;;;;;10.27;4.63;;;14.30;78.00;;;;;;4980287;28;20031;-80
2022/06/04 02:26:16;;;;;;;5.65;5.15;;;14.20;78.10;;;;;;4959373;28;20462;-80
2022/06/04 02:28:42;;;;;;;6.85;4.75;;;14.30;78.80;;;;;;4976513;28;20034;-80
2022/06/04 02:31:13;;;;;;;5.18;4.30;;;14.20;78.40;;;;;;4977489;28;20022;-80
2022/06/04 02:33:57;;;;;;;7.43;5.13;;;14.20;78.90;;;;;;4990691;28;20537;-80
2022/06/04 02:36:52;;;;;;;7.88;5.20;;;14.30;78.70;;;;;;4975609;28;20026;-80
2022/06/04 02:39:43;;;;;;;6.25;4.35;;;14.30;79.50;;;;;;4974250;28;20109;-78
2022/06/04 02:42:15;;;;;;;5.60;4.13;;;14.30;80.60;;;;;;4989495;28;20479;-78
2022/06/04 02:45:08;;;;;;;9.98;5.80;;;14.30;81.50;;;;;;4956636;28;20121;-78
2022/06/04 02:47:47;;;;;;;4.20;3.90;;;14.30;82.50;;;;;;4975907;28;20133;-78
2022/06/04 02:50:29;;;;;;;5.38;4.53;;;14.40;82.40;;;;;;4971143;28;20114;-78
2022/06/04 02:52:55;;;;;;;7.90;5.30;;;14.40;80.50;;;;;;4991154;28;20053;-78
2022/06/04 02:55:24;;;;;;;5.88;4.80;;;14.40;81.70;;;;;;4957161;28;20026;-78
2022/06/04 02:57:51;;;;;;;6.10;4.85;;;14.30;81.90;;;;;;4975481;28;20496;-78
2022/06/04 03:00:19;;;;;;;6.03;5.05;;;14.30;83.70;;;;;;4970682;28;20034;-77
2022/06/04 03:02:45;;;;;;;7.63;4.82;;;14.40;83.80;;;;;;4973095;28;20042;-77
2022/06/04 03:05:14;;;;;;;8.60;4.95;;;14.40;82.90;;;;;;4972550;28;20091;-78
2022/06/04 03:07:42;;;;;;;6.05;4.57;;;14.40;81.10;;;;;;4960162;28;20041;-78
2022/06/04 03:10:29;;;;;;;8.05;5.00;;;14.50;82.20;;;;;;4970969;28;20025;-78
2022/06/04 03:12:54;;;;;;;6.18;4.85;;;14.40;82.80;;;;;;4985580;28;20093;-77
2022/06/04 03:15:21;;;;;;;6.57;4.60;;;14.40;83.30;;;;;;4991530;28;20026;-77
2022/06/04 03:17:47;;;;;;;6.20;4.63;;;14.40;83.50;;;;;;4959787;28;20385;-77
2022/06/04 03:20:15;;;;;;;6.53;5.18;;;14.40;82.00;;;;;;4975475;28;20552;-78
2022/06/04 03:22:40;;;;;;;7.47;4.60;;;14.40;83.60;;;;;;4976695;28;20033;-77
2022/06/04 03:25:06;;;;;;;6.72;4.90;;;14.40;82.80;;;;;;4993142;28;20137;-78
2022/06/04 03:27:32;;;;;;;8.48;5.15;;;14.30;85.20;;;;;;4971885;28;20034;-77
2022/06/04 03:29:57;;;;;;;6.63;4.50;;;14.30;83.80;;;;;;4956121;28;20096;-77
2022/06/04 03:32:23;;;;;;;9.50;5.45;;;14.30;85.00;;;;;;4959031;28;20038;-77
2022/06/04 03:34:48;;;;;;;8.25;5.13;;;14.30;85.50;;;;;;4965095;28;20037;-78
2022/06/04 03:37:14;;;;;;;11.02;5.25;;;14.40;85.00;;;;;;4973928;28;20046;-77
2022/06/04 03:39:40;;;;;;;7.78;5.13;;;14.40;85.60;;;;;;4975098;28;20038;-77
2022/06/04 03:42:06;;;;;;;7.95;4.78;;;14.30;87.00;;;;;;4974605;28;20566;-77
2022/06/04 03:44:31;;;;;;;5.18;4.68;;;14.30;86.90;;;;;;4980957;28;20034;-78
2022/06/04 03:46:57;;;;;;;7.53;5.10;;;14.30;89.20;;;;;;4975465;28;20022;-78
2022/06/04 03:49:23;;;;;;;9.82;5.22;;;14.30;89.30;;;;;;4955224;28;20441;-77
2022/06/04 03:51:48;;;;;;;6.47;5.28;;;14.30;89.00;;;;;;4956317;28;20046;-77
2022/06/04 03:54:14;;;;;;;6.40;5.57;;;14.30;87.10;;;;;;4977050;28;20034;-77
2022/06/04 03:56:40;;;;;;;6.35;4.95;;;14.30;88.40;;;;;;4990034;28;20041;-77
2022/06/04 03:59:05;;;;;;;7.55;5.28;;;14.30;88.90;;;;;;4989591;28;20038;-77
2022/06/04 04:01:31;;;;;;;8.38;5.32;;;14.30;90.00;;;;;;4966481;28;20035;-77
2022/06/04 04:03:57;;;;;;;7.50;4.60;;;14.40;89.30;;;;;;4975113;28;20023;-78
2022/06/04 04:06:31;;;;;;;7.95;5.45;;;14.50;88.90;;;;;;4955710;28;20518;-77
2022/06/04 04:08:56;;;;;;;5.97;5.03;;;14.40;88.90;;;;;;4976064;28;20517;-77
2022/06/04 04:11:25;;;;;;;9.27;4.88;;;14.40;88.80;;;;;;4973412;28;20073;-77
2022/06/04 04:13:51;;;;;;;6.97;4.93;;;14.50;90.40;;;;;;4957049;28;20434;-78
2022/06/04 04:16:17;;;;;;;5.70;5.10;;;14.50;88.90;;;;;;4969424;28;20038;-78
2022/06/04 04:18:42;;;;;;;5.45;5.00;;;14.40;90.00;;;;;;4973936;28;20350;-77
2022/06/04 04:21:15;;;;;;;8.30;5.28;;;14.40;90.20;;;;;;4957484;28;20030;-77
2022/06/04 04:23:41;;;;;;;6.30;4.85;;;14.40;90.10;;;;;;4969641;28;20061;-77
2022/06/04 04:26:07;;;;;;;8.90;5.55;;;14.50;90.10;;;;;;4972239;28;20026;-77
2022/06/04 04:28:33;;;;;;;6.20;4.85;;;14.50;90.00;;;;;;4959749;28;20042;-77
2022/06/04 04:30:59;;;;;;;9.52;5.53;;;14.50;89.30;;;;;;4973964;28;20030;-77
2022/06/04 04:33:24;;;;;;;6.43;5.00;;;14.50;89.60;;;;;;4959441;28;20030;-78
2022/06/04 04:35:50;;;;;;;6.78;5.43;;;14.60;90.00;;;;;;4953067;28;20628;-78
2022/06/04 04:38:18;;;;;;;6.13;5.22;;;14.60;89.40;;;;;;4973186;28;20034;-79
2022/06/04 04:40:44;;;;;;;7.68;5.22;;;14.60;89.30;;;;;;4961940;28;20454;-79
2022/06/04 04:43:09;;;;;;;7.53;5.20;;;14.60;89.60;;;;;;4957278;28;20026;-78
2022/06/04 04:45:35;;;;;;;7.18;4.88;;;14.70;90.10;;;;;;4974835;28;20033;-79
2022/06/04 04:48:00;;;;;;;6.18;4.82;;;14.70;89.80;;;;;;4974234;28;20483;-79
2022/06/04 04:50:34;;;;;;;6.13;4.78;;;14.80;89.70;;;;;;4952775;28;20508;-79
2022/06/04 04:53:01;;;;;;;7.55;5.15;;;14.80;90.50;;;;;;4946277;28;20026;-79
2022/06/04 04:55:27;;;;;;;8.55;5.05;;;14.80;90.00;;;;;;4957557;28;20505;-79
2022/06/04 04:57:52;;;;;;;6.03;5.28;;;14.90;90.00;;;;;;4973606;28;20184;-78
2022/06/04 05:00:19;;;;;;;10.68;5.72;;;14.90;90.50;;;;;;4989690;28;20349;-79
2022/06/04 05:02:44;;;;;;;6.82;4.95;;;15.00;90.80;;;;;;4988978;28;20356;-78
2022/06/04 05:05:11;;;;;;;6.05;4.97;;;15.00;90.40;;;;;;4957553;28;20042;-79
2022/06/04 05:07:37;;;;;;;13.98;6.00;;;15.10;90.80;;;;;;4954486;28;20107;-78
2022/06/04 05:10:03;;;;;;;5.93;5.28;;;15.10;90.30;;;;;;4977343;28;20030;-78
2022/06/04 05:12:30;;;;;;;9.27;5.68;;;15.20;90.30;;;;;;4988412;28;20033;-78
2022/06/04 05:14:55;;;;;;;7.35;5.35;;;15.30;89.90;;;;;;4961087;28;20397;-78
2022/06/04 05:17:21;;;;;;;10.25;5.90;;;15.40;90.00;;;;;;4979475;28;20031;-78
2022/06/04 05:19:46;;;;;;;6.97;5.28;;;15.50;90.00;;;;;;4996721;28;20038;-79
2022/06/04 05:22:12;;;;;;;8.35;5.70;;;15.60;90.00;;;;;;4978720;28;20034;-79
2022/06/04 05:24:37;;;;;;;9.52;6.15;;;15.70;89.90;;;;;;4959042;28;20181;-79
2022/06/04 05:27:04;;;;;;;8.57;5.40;;;15.80;89.50;;;;;;4974866;28;20038;-79
2022/06/04 05:29:31;;;;;;;5.82;5.25;;;15.90;89.00;;;;;;4997486;28;20113;-79
2022/06/04 05:31:57;;;;;;;5.82;5.22;;;16.00;89.60;;;;;;4977461;28;20080;-80
2022/06/04 05:34:23;;;;;;;8.35;5.22;;;16.10;90.00;;;;;;4974931;28;20034;-79
2022/06/04 05:36:49;;;;;;;7.22;4.70;;;16.20;89.10;;;;;;4974169;28;20037;-81
2022/06/04 05:39:15;;;;;;;7.00;5.10;;;16.30;88.30;;;;;;4975691;28;20034;-81
2022/06/04 05:41:41;;;;;;;6.63;4.88;;;16.40;89.40;;;;;;4993315;28;20120;-81
2022/06/04 05:44:06;;;;;;;7.82;5.75;;;16.60;88.90;;;;;;4975277;28;20023;-81
2022/06/04 05:46:32;;;;;;;6.05;5.22;;;16.70;89.10;;;;;;4971453;28;20026;-81
2022/06/04 05:48:59;;;;;;;7.63;4.60;;;16.80;88.40;;;;;;4962651;28;20077;-81
2022/06/04 05:51:26;;;;;;;9.38;4.90;;;17.00;88.50;;;;;;4979939;28;20030;-79
2022/06/04 05:53:52;;;;;;;6.93;5.65;;;17.00;88.10;;;;;;4976643;28;20062;-81
2022/06/04 05:56:22;;;;;;;10.18;5.07;;;17.10;87.70;;;;;;4980345;28;20057;-81
2022/06/04 05:58:48;;;;;;;6.50;5.80;;;17.10;87.50;;;;;;4963428;28;20394;-79
2022/06/04 06:01:15;;;;;;;9.15;5.45;;;17.20;87.60;;;;;;4960794;28;20120;-79
2022/06/04 06:03:41;;;;;;;5.60;5.10;;;17.30;86.60;;;;;;4965550;28;20044;-79
2022/06/04 06:06:23;;;;;;;8.32;5.28;;;17.40;86.70;;;;;;4981488;28;20109;-79
2022/06/04 06:08:49;;;;;;;6.07;5.47;;;17.40;86.60;;;;;;4964893;28;20382;-81
2022/06/04 06:11:16;;;;;;;7.95;5.00;;;17.60;86.20;;;;;;4975919;28;20034;-79
2022/06/04 06:13:42;;;;;;;10.43;5.82;;;17.60;85.80;;;;;;4954736;28;20042;-79
2022/06/04 06:16:10;;;;;;;5.97;4.70;;;17.80;85.80;;;;;;4961279;28;20379;-79
2022/06/04 06:18:36;;;;;;;7.43;5.47;;;17.90;85.60;;;;;;4992190;28;20546;-79
2022/06/04 06:21:10;;;;;;;5.93;4.88;;;18.10;85.40;;;;;;4957959;28;20591;-81
2022/06/04 06:23:36;;;;;;;6.10;5.50;;;18.20;85.00;;;;;;4988111;28;20042;-80
2022/06/04 06:26:08;;;;;;;7.03;4.50;;;18.40;83.70;;;;;;4958884;28;20061;-80
2022/06/04 06:28:34;;;;;;;8.95;5.10;;;18.50;84.10;;;;;;4965315;28;20062;-79
2022/06/04 06:31:00;;;;;;;7.45;5.55;;;18.60;83.80;;;;;;4961145;28;20113;-79
2022/06/04 06:33:25;;;;;;;7.18;4.80;;;18.80;83.70;;;;;;4973947;28;20454;-80
2022/06/04 06:36:03;;;;;;;6.78;5.47;;;18.80;83.30;;;;;;4960347;28;20034;-79
2022/06/04 06:38:29;;;;;;;9.30;5.22;;;19.00;83.40;;;;;;4970469;28;20031;-80
2022/06/04 06:40:55;;;;;;;8.20;4.68;;;19.10;82.70;;;;;;4990295;28;20126;-80
2022/06/04 06:43:21;;;;;;;6.40;4.88;;;19.30;82.60;;;;;;4991189;28;20050;-80
2022/06/04 06:45:47;;;;;;;9.13;5.20;;;19.40;82.70;;;;;;4979725;28;20540;-80
2022/06/04 06:48:13;;;;;;;7.20;5.47;;;19.60;82.00;;;;;;4962477;28;20034;-80
2022/06/04 06:50:38;;;;;;;6.30;4.60;;;19.90;81.40;;;;;;4989928;28;20048;-80
2022/06/04 06:53:04;;;;;;;6.93;4.97;;;20.10;81.10;;;;;;4961842;28;20444;-80
2022/06/04 06:55:29;;;;;;;6.10;5.25;;;20.30;80.70;;;;;;4977260;28;20041;-80
2022/06/04 06:57:55;;;;;;;9.48;5.72;;;20.60;80.70;;;;;;4978541;28;20026;-80
2022/06/04 07:00:21;;;;;;;5.97;4.85;;;20.80;79.20;;;;;;4979238;28;20038;-80
2022/06/04 07:02:46;;;;;;;6.25;5.05;;;21.20;79.10;;;;;;4968215;28;20038;-80
2022/06/04 07:05:13;;;;;;;6.40;5.28;;;21.50;77.80;;;;;;4990099;28;20118;-80
2022/06/04 07:07:39;;;;;;;9.23;5.20;;;21.70;77.70;;;;;;4975064;28;20413;-80
2022/06/04 07:10:05;;;;;;;6.20;4.50;;;21.90;77.50;;;;;;4994425;28;20553;-80
2022/06/04 07:12:31;;;;;;;8.25;4.75;;;22.00;77.60;;;;;;4958450;28;20122;-80
2022/06/04 07:15:00;;;;;;;5.75;4.75;;;22.30;76.20;;;;;;4996373;28;20048;-80
2022/06/04 07:17:25;;;;;;;6.95;5.53;;;22.50;76.90;;;;;;4972038;28;20030;-80
2022/06/04 07:19:51;;;;;;;5.07;4.40;;;22.80;74.40;;;;;;4994464;28;20394;-81
2022/06/04 07:22:16;;;;;;;8.32;4.40;;;23.00;74.30;;;;;;4975178;28;20066;-80
2022/06/04 07:24:42;;;;;;;5.57;4.78;;;23.10;73.20;;;;;;4974387;28;20037;-81
2022/06/04 07:27:08;;;;;;;7.47;4.80;;;23.40;72.30;;;;;;4977018;28;20030;-80
2022/06/04 07:29:34;;;;;;;9.30;5.90;;;23.60;72.20;;;;;;4956806;28;20038;-82
2022/06/04 07:32:00;;;;;;;4.30;3.92;;;23.60;71.60;;;;;;4965719;28;20529;-80
2022/06/04 07:34:25;;;;;;;7.47;5.03;;;23.70;70.90;;;;;;4957989;28;20026;-80
2022/06/04 07:36:51;;;;;;;9.55;4.78;;;23.70;69.90;;;;;;4956819;28;20537;-81
2022/06/04 07:39:18;;;;;;;6.65;4.20;;;23.70;69.30;;;;;;4974141;28;20038;-80
2022/06/04 07:41:47;;;;;;;5.20;4.70;;;23.70;69.90;;;;;;4975569;28;20470;-81
2022/06/04 07:44:16;;;;;;;5.88;4.88;;;23.80;69.40;;;;;;4977975;28;20033;-81
2022/06/04 07:46:42;;;;;;;5.03;4.50;;;23.80;68.50;;;;;;4973687;28;20490;-81
2022/06/04 07:49:07;;;;;;;5.63;4.53;;;23.90;68.30;;;;;;4969791;28;20088;-81
2022/06/04 07:51:33;;;;;;;7.35;4.97;;;23.90;68.60;;;;;;4950067;28;20052;-81
2022/06/04 07:53:59;;;;;;;7.30;4.43;;;24.00;69.00;;;;;;4955931;28;20105;-81
2022/06/04 07:56:25;;;;;;;5.68;4.63;;;24.10;68.50;;;;;;4971976;28;20109;-81
2022/06/04 07:58:50;;;;;;;7.00;4.47;;;24.10;67.70;;;;;;4954977;28;20546;-80
2022/06/04 08:01:17;;;;;;;5.25;4.80;;;24.20;67.80;;;;;;4954707;28;20034;-80
2022/06/04 08:03:46;;;;;;;9.98;5.15;;;24.20;66.80;;;;;;4946741;28;20402;-81
2022/06/04 08:06:13;;;;;;;7.85;5.03;;;24.20;66.10;;;;;;4960322;28;20414;-80
2022/06/04 08:08:39;;;;;;;9.40;4.85;;;24.30;66.50;;;;;;4956143;28;20560;-81
2022/06/04 08:11:30;;;;;;;6.95;5.00;;;24.40;66.70;;;;;;4973849;28;20751;-81
2022/06/04 08:13:50;;;;;;;4.97;4.47;;;24.50;66.40;;;;;;4975770;28;20027;-80
2022/06/04 08:16:16;;;;;;;7.97;5.57;;;24.70;65.90;;;;;;4962175;28;20054;-80
2022/06/04 08:18:42;;;;;;;5.57;5.05;;;24.80;64.90;;;;;;4961172;28;20057;-80
2022/06/04 08:21:07;;;;;;;5.82;5.28;;;24.90;65.60;;;;;;4958928;28;20034;-83
2022/06/04 08:23:33;;;;;;;5.15;4.32;;;25.00;66.00;;;;;;4966389;28;20068;-80
2022/06/04 08:25:59;;;;;;;6.00;4.78;;;25.10;66.20;;;;;;4955466;28;20036;-80
2022/06/04 08:28:24;;;;;;;4.35;3.95;;;25.20;64.40;;;;;;4978478;28;20030;-82
2022/06/04 08:31:00;;;;;;;4.72;4.20;;;25.30;65.20;;;;;;4975845;28;20084;-80
2022/06/04 08:33:26;;;;;;;9.60;4.68;;;25.50;65.70;;;;;;4977882;28;20077;-80
2022/06/04 08:35:52;;;;;;;9.10;5.53;;;25.70;65.30;;;;;;4956940;28;20027;-82
2022/06/04 08:38:17;;;;;;;6.32;5.72;;;25.90;64.90;;;;;;4973603;28;20033;-82
2022/06/04 08:40:47;;;;;;;7.57;6.03;;;26.10;63.10;;;;;;4974011;28;20398;-82
2022/06/04 08:43:31;;;;;;;9.05;5.97;;;26.30;62.90;;;;;;4972667;28;20409;-82
2022/06/04 08:45:57;;;;;;;7.97;5.63;;;26.40;62.70;;;;;;4991067;28;20031;-83
2022/06/04 08:48:35;;;;;;;7.10;5.40;;;26.50;61.70;;;;;;4965600;28;20030;-83
2022/06/04 08:51:01;;;;;;;8.63;6.20;;;26.60;62.70;;;;;;4967232;28;20381;-83
2022/06/04 08:53:28;;;;;;;6.65;5.25;;;26.70;62.50;;;;;;4957990;28;20108;-83
2022/06/04 08:59:15;;;;;;;6.93;5.50;;;26.90;60.30;;;;;;4978762;28;20044;-83
2022/06/04 09:01:44;;;;;;;6.00;5.40;;;27.00;60.30;;;;;;4968544;28;20482;-83
2022/06/04 09:04:35;;;;;;;7.88;5.97;;;27.10;60.70;;;;;;4956166;28;20164;-83
2022/06/04 09:07:10;;;;;;;6.47;5.85;;;27.30;60.00;;;;;;4973986;28;20035;-83
2022/06/04 09:09:47;;;;;;;6.70;5.75;;;27.40;60.30;;;;;;4988072;28;20038;-83
2022/06/04 09:12:25;;;;;;;8.32;6.18;;;27.40;59.20;;;;;;4969655;28;20031;-83
2022/06/04 09:15:03;;;;;;;5.88;4.95;;;27.50;58.90;;;;;;4982256;28;20037;-84
2022/06/04 09:17:45;;;;;;;8.15;6.45;;;27.60;59.50;;;;;;4991614;28;20093;-84
2022/06/04 09:20:16;;;;;;;8.30;6.55;;;27.70;57.40;;;;;;4992025;28;20129;-84
2022/06/04 09:22:42;;;;;;;8.38;6.10;;;27.60;57.70;;;;;;4999181;28;20034;-84
2022/06/04 09:25:15;;;;;;;9.90;6.30;;;27.60;58.40;;;;;;4974196;28;20180;-84
2022/06/04 09:27:59;;;;;;;6.78;5.93;;;27.60;58.30;;;;;;4994706;28;20070;-84
2022/06/04 09:30:27;;;;;;;7.15;5.65;;;27.70;56.90;;;;;;4992411;28;20035;-84
2022/06/04 09:33:05;;;;;;;7.95;6.30;;;27.60;57.30;;;;;;4976872;28;20184;-84
2022/06/04 09:35:38;;;;;;;6.32;5.72;;;27.60;57.60;;;;;;4986383;28;20026;-84
2022/06/04 09:38:03;;;;;;;9.00;6.70;;;27.60;58.30;;;;;;4957026;28;20605;-84
2022/06/04 09:40:32;;;;;;;7.93;6.30;;;27.70;58.10;;;;;;4953586;28;20120;-85
2022/06/04 09:43:14;;;;;;;8.95;6.47;;;27.80;56.60;;;;;;4957179;28;20062;-85
2022/06/04 09:45:40;;;;;;;7.15;5.88;;;27.80;56.90;;;;;;4968622;28;20049;-85
2022/06/04 09:48:32;;;;;;;7.35;6.30;;;27.70;56.80;;;;;;4969148;28;20039;-85
2022/06/04 09:51:00;;;;;;;11.63;6.60;;;27.70;56.80;;;;;;4966538;28;20045;-86
2022/06/04 09:53:29;;;;;;;7.45;6.47;;;27.80;56.20;;;;;;4956000;28;20034;-86
2022/06/04 09:55:58;;;;;;;5.25;4.63;;;27.80;56.50;;;;;;4976552;28;20046;-84
2022/06/04 09:58:37;;;;;;;8.68;6.45;;;27.80;56.80;;;;;;4967249;28;20030;-84
2022/06/04 10:01:18;;;;;;;8.05;5.43;;;27.90;56.90;;;;;;4966483;28;20034;-84
2022/06/04 10:03:45;;;;;;;8.43;6.18;;;27.90;57.50;;;;;;4983520;28;20442;-85
2022/06/04 10:06:17;;;;;;;7.45;6.32;;;28.00;57.60;;;;;;4977773;28;20037;-85
2022/06/04 10:11:35;;;;;;;6.82;5.45;;;28.00;56.50;;;;;;4975656;28;20236;-85
2022/06/04 10:14:01;;;;;;;8.23;5.07;;;28.00;56.80;;;;;;4955936;28;20030;-86
2022/06/04 10:16:41;;;;;;;7.50;5.68;;;28.00;57.40;;;;;;4972484;28;20030;-86
2022/06/04 10:19:14;;;;;;;10.15;6.90;;;28.00;57.30;;;;;;4984623;28;20066;-84
2022/06/04 10:21:41;;;;;;;7.13;6.25;;;28.20;56.30;;;;;;4969705;28;20478;-85
2022/06/04 10:24:22;;;;;;;8.23;7.13;;;28.20;56.80;;;;;;4963867;28;20065;-85
2022/06/04 10:27:01;;;;;;;9.48;6.47;;;28.20;56.10;;;;;;4970522;28;20038;-86
2022/06/04 10:29:59;;;;;;;7.25;5.95;;;28.30;56.70;;;;;;4994242;28;20105;-85
2022/06/04 10:33:01;;;;;;;9.48;5.78;;;28.40;55.90;;;;;;4995453;28;20095;-86
2022/06/04 10:35:30;;;;;;;9.77;7.15;;;28.40;56.70;;;;;;4995617;28;20567;-86
2022/06/04 10:38:11;;;;;;;7.88;6.95;;;28.60;55.80;;;;;;4976942;28;20057;-86
2022/06/04 10:40:42;;;;;;;7.57;6.55;;;28.70;55.80;;;;;;4958739;28;20272;-85
2022/06/04 10:43:29;;;;;;;5.28;4.88;;;28.70;56.10;;;;;;4959632;28;20108;-85
2022/06/04 10:46:20;;;;;;;6.38;5.70;;;28.80;55.90;;;;;;4991513;28;20034;-85
2022/06/04 10:49:03;;;;;;;6.25;5.05;;;29.10;56.00;;;;;;4958006;28;20042;-84
2022/06/04 10:51:49;;;;;;;7.05;6.40;;;29.30;56.00;;;;;;4971773;28;20037;-84
2022/06/04 10:54:27;;;;;;;14.35;6.82;;;29.50;55.40;;;;;;4990752;28;20034;-85
2022/06/04 10:57:02;;;;;;;13.18;7.25;;;29.80;56.00;;;;;;4974522;28;20035;-86
2022/06/04 10:59:34;;;;;;;8.65;7.03;;;30.00;56.00;;;;;;4973012;28;20030;-87
2022/06/04 11:02:12;;;;;;;9.40;7.00;;;30.30;54.30;;;;;;4298650;28;10000444;-86
2022/06/04 11:04:50;;;;;;;9.43;7.65;;;30.40;54.50;;;;;;4954194;28;20478;-87
2022/06/04 11:07:53;;;;;;;9.00;7.05;;;30.60;54.00;;;;;;4944637;28;20748;-87
2022/06/04 11:10:25;;;;;;;8.98;6.20;;;30.80;52.90;;;;;;4986046;28;20130;-86
2022/06/04 11:12:56;;;;;;;7.38;6.68;;;30.80;53.50;;;;;;4973882;28;20589;-86
2022/06/04 11:15:25;;;;;;;7.13;6.43;;;30.90;52.40;;;;;;4969354;28;20030;-86
2022/06/04 11:17:57;;;;;;;9.27;7.00;;;31.00;53.30;;;;;;4954670;28;20034;-85
2022/06/04 11:20:36;;;;;;;8.52;6.25;;;31.00;52.40;;;;;;4965849;28;20046;-85
2022/06/04 11:23:15;;;;;;;7.40;6.45;;;31.10;53.20;;;;;;4951680;28;20426;-84
2022/06/04 11:25:42;;;;;;;8.65;6.80;;;31.10;52.80;;;;;;4983128;28;20035;-84
2022/06/04 11:28:10;;;;;;;10.20;6.65;;;31.20;52.20;;;;;;4970722;28;20030;-83
2022/06/04 11:30:54;;;;;;;7.68;6.25;;;31.40;52.00;;;;;;4953673;28;20040;-82
2022/06/04 11:33:51;;;;;;;7.72;6.45;;;31.50;51.60;;;;;;4986371;28;20084;-82
2022/06/04 11:36:47;;;;;;;5.75;4.82;;;31.60;51.50;;;;;;4967611;28;20042;-81
2022/06/04 11:39:22;;;;;;;7.30;5.47;;;31.70;52.10;;;;;;4958530;28;20957;-81
2022/06/04 11:41:58;;;;;;;8.75;6.25;;;32.00;52.00;;;;;;4992266;28;20044;-81
2022/06/04 11:44:56;;;;;;;5.97;5.32;;;32.00;50.50;;;;;;4995579;28;20030;-80
2022/06/04 11:47:30;;;;;;;7.38;6.15;;;31.90;51.80;;;;;;4957919;28;20038;-81
2022/06/04 11:50:14;;;;;;;6.25;5.70;;;31.90;51.30;;;;;;4973949;28;20034;-80
2022/06/04 11:53:18;;;;;;;10.35;5.88;;;31.80;50.70;;;;;;4978322;28;20037;-80
2022/06/04 11:55:49;;;;;;;6.72;6.03;;;31.80;51.90;;;;;;4992188;28;20022;-80
2022/06/04 11:58:46;;;;;;;7.78;6.18;;;31.80;50.10;;;;;;4993251;28;20034;-80
2022/06/04 12:01:28;;;;;;;6.53;5.93;;;31.70;49.40;;;;;;4973676;28;20046;-80
2022/06/04 12:03:59;;;;;;;8.23;6.13;;;31.70;49.90;;;;;;4972904;28;20498;-80
2022/06/04 12:06:37;;;;;;;7.22;6.50;;;31.70;50.10;;;;;;4974424;28;20041;-80
2022/06/04 12:09:17;;;;;;;5.80;5.30;;;31.60;51.00;;;;;;4977792;28;20041;-80
2022/06/04 12:11:51;;;;;;;10.15;5.97;;;31.50;50.80;;;;;;4982909;28;20065;-80
2022/06/04 12:14:53;;;;;;;5.68;5.18;;;31.60;50.30;;;;;;4976923;28;20034;-80
2022/06/04 12:17:21;;;;;;;6.63;5.93;;;31.50;50.10;;;;;;4989592;28;20118;-80
2022/06/04 12:25:41;;;;;;;8.70;6.00;;;31.40;49.80;;;;;;4975541;28;20058;-81
2022/06/04 12:28:42;;;;;;;5.35;4.68;;;31.40;50.50;;;;;;4973262;28;20030;-80
2022/06/04 12:31:07;;;;;;;5.68;5.18;;;31.50;50.40;;;;;;4966969;28;20463;-80
2022/06/04 12:33:39;;;;;;;6.82;6.22;;;31.60;50.50;;;;;;4959710;28;20030;-80
2022/06/04 12:36:08;;;;;;;5.03;4.40;;;31.60;50.10;;;;;;4976353;28;20046;-80
2022/06/04 12:38:42;;;;;;;7.35;5.53;;;31.90;50.90;;;;;;4976720;28;20042;-80
2022/06/04 12:41:17;;;;;;;6.10;5.60;;;32.10;50.40;;;;;;4957337;28;20064;-79
2022/06/04 12:43:45;;;;;;;6.00;4.20;;;32.30;50.10;;;;;;4980116;28;20100;-80
2022/06/04 12:46:16;;;;;;;6.28;5.53;;;32.50;50.20;;;;;;4979693;28;20034;-79
2022/06/04 12:48:53;;;;;;;6.93;5.35;;;32.70;48.40;;;;;;4976108;28;20473;-80
2022/06/04 12:51:49;;;;;;;6.30;5.35;;;32.80;48.50;;;;;;4981925;28;20046;-80
2022/06/04 12:54:24;;;;;;;8.18;4.15;;;33.00;49.00;;;;;;4996890;28;20654;-79
2022/06/04 12:56:54;;;;;;;;;;;33.10;48.90;;;;;;4997292;28;20034;-78
2022/06/04 12:59:40;;;;;;;6.88;5.32;;;33.40;49.00;;;;;;4981058;28;20011;-80
2022/06/04 13:02:28;;;;;;;5.85;3.85;;;33.70;48.20;;;;;;4996636;28;20390;-77
2022/06/04 13:05:18;;;;;;;5.00;4.60;;;33.80;47.50;;;;;;4997697;28;20044;-78
2022/06/04 13:07:55;;;;;;;5.07;3.83;;;34.00;47.10;;;;;;4967853;28;20021;-77
2022/06/04 13:10:35;;;;;;;4.40;4.00;;;34.20;46.90;;;;;;4981667;28;20029;-77
2022/06/04 13:13:22;;;;;;;4.38;3.95;;;34.20;46.50;;;;;;4997848;28;20507;-77
2022/06/04 13:15:52;;;;;;;5.97;3.67;;;34.40;46.10;;;;;;4973262;28;20034;-79
2022/06/04 13:18:25;;;;;;;5.75;4.10;;;34.30;44.80;;;;;;4958369;28;20030;-79
2022/06/04 13:20:56;;;;;;;4.25;3.53;;;34.20;45.30;;;;;;4993410;28;20108;-77
2022/06/04 13:23:35;;;;;;;7.38;4.18;;;34.20;46.40;;;;;;4963397;28;20196;-77
2022/06/04 13:26:21;;;;;;;6.50;3.95;;;34.40;44.60;;;;;;4977475;28;20099;-76